createdAt,value
2022-12-12T00:02:20.563Z,68.30
2022-12-12T00:04:47.783Z,65.53
2022-12-12T00:07:15.401Z,65.32
2022-12-12T00:09:42.553Z,66.72
2022-12-12T00:12:09.895Z,64.13
2022-12-12T00:14:37.057Z,63.70
2022-12-12T00:17:04.259Z,72.03
2022-12-12T00:19:31.659Z,64.25
2022-12-12T00:22:01.010Z,62.42
2022-12-12T00:24:28.133Z,69.18
2022-12-12T00:26:55.625Z,64.78
2022-12-12T00:29:22.967Z,68.63
2022-12-12T00:31:50.066Z,62.88
2022-12-12T00:34:17.166Z,57.22
2022-12-12T00:36:46.484Z,59.38
2022-12-12T00:39:18.186Z,59.25
2022-12-12T00:41:45.804Z,60.78
2022-12-12T00:44:13.249Z,60.00
2022-12-12T00:46:40.803Z,56.25
2022-12-12T00:49:07.970Z,64.25
2022-12-12T00:51:37.905Z,56.55
2022-12-12T00:54:05.876Z,55.85
2022-12-12T00:56:33.083Z,53.72
2022-12-12T00:59:00.539Z,53.50
2022-12-12T01:01:28.713Z,57.08
2022-12-12T01:03:56.030Z,58.20
2022-12-12T01:06:23.679Z,52.60
2022-12-12T01:08:50.763Z,54.00
2022-12-12T01:11:19.133Z,54.63
2022-12-12T01:13:46.733Z,56.60
2022-12-12T01:16:13.938Z,50.65
2022-12-12T01:18:41.709Z,52.42
2022-12-12T01:21:10.353Z,48.58
2022-12-12T01:23:37.791Z,50.95
2022-12-12T01:26:06.098Z,50.70
2022-12-12T01:28:33.255Z,51.33
2022-12-12T01:31:00.386Z,51.65
2022-12-12T01:33:30.117Z,43.95
2022-12-12T01:35:57.319Z,49.85
2022-12-12T01:38:24.891Z,47.28
2022-12-12T01:40:52.570Z,51.38
2022-12-12T01:43:20.353Z,51.45
2022-12-12T01:46:02.992Z,53.83
2022-12-12T01:48:30.101Z,53.80
2022-12-12T01:50:57.905Z,54.78
2022-12-12T01:53:26.447Z,48.97
2022-12-12T01:55:53.959Z,51.55
2022-12-12T01:58:21.110Z,48.53
2022-12-12T02:00:48.258Z,51.88
2022-12-12T02:03:16.601Z,51.67
2022-12-12T02:05:46.407Z,53.40
2022-12-12T02:08:14.742Z,52.90
2022-12-12T02:10:41.905Z,51.60
2022-12-12T02:13:13.979Z,50.50
2022-12-12T02:15:50.091Z,52.45
2022-12-12T02:18:30.425Z,52.47
2022-12-12T02:20:57.500Z,54.50
2022-12-12T02:23:43.775Z,55.08
2022-12-12T02:26:32.428Z,51.58
2022-12-12T02:29:02.300Z,51.80
2022-12-12T02:31:35.187Z,52.08
2022-12-12T02:34:04.987Z,53.30
2022-12-12T02:36:48.893Z,49.97
2022-12-12T02:39:29.553Z,49.50
2022-12-12T02:42:00.087Z,56.75
2022-12-12T02:44:29.589Z,47.42
2022-12-12T02:47:08.996Z,47.15
2022-12-12T02:49:40.201Z,58.40
2022-12-12T02:52:08.033Z,58.15
2022-12-12T02:54:36.234Z,54.67
2022-12-12T02:57:03.701Z,51.85
2022-12-12T02:59:35.172Z,55.00
2022-12-12T03:02:23.346Z,54.95
2022-12-12T03:05:09.232Z,52.55
2022-12-12T03:07:48.806Z,52.97
2022-12-12T03:10:18.838Z,47.83
2022-12-12T03:13:00.398Z,53.85
2022-12-12T03:15:31.021Z,51.53
2022-12-12T03:20:33.996Z,48.45
2022-12-12T03:23:01.369Z,48.95
2022-12-12T03:25:39.275Z,48.42
2022-12-12T03:28:09.203Z,51.42
2022-12-12T03:30:44.897Z,46.83
2022-12-12T03:33:14.807Z,44.42
2022-12-12T03:35:47.103Z,56.67
2022-12-12T03:38:19.907Z,47.95
2022-12-12T03:40:47.692Z,48.10
2022-12-12T03:43:17.065Z,46.67
2022-12-12T03:45:53.134Z,53.80
2022-12-12T03:48:28.874Z,48.10
2022-12-12T03:50:57.134Z,49.65
2022-12-12T03:53:27.360Z,52.45
2022-12-12T03:56:19.143Z,51.75
2022-12-12T03:58:46.251Z,53.45
2022-12-12T04:01:14.490Z,49.45
2022-12-12T04:03:44.514Z,53.28
2022-12-12T04:06:26.865Z,52.63
2022-12-12T04:09:16.549Z,48.80
2022-12-12T04:12:08.629Z,52.70
2022-12-12T04:14:44.626Z,49.10
2022-12-12T04:17:13.897Z,49.08
2022-12-12T04:20:03.486Z,45.28
2022-12-12T04:22:52.277Z,50.50
2022-12-12T04:25:27.626Z,43.60
2022-12-12T04:27:55.966Z,46.83
2022-12-12T04:30:23.184Z,46.95
2022-12-12T04:32:53.240Z,51.03
2022-12-12T04:35:23.348Z,46.30
2022-12-12T04:37:53.514Z,47.35
2022-12-12T04:40:30.093Z,43.08
2022-12-12T04:42:59.210Z,47.15
2022-12-12T04:45:29.191Z,50.38
2022-12-12T04:47:57.482Z,46.33
2022-12-12T04:50:26.140Z,54.95
2022-12-12T04:52:54.610Z,48.97
2022-12-12T04:55:26.589Z,48.05
2022-12-12T04:57:54.826Z,48.58
2022-12-12T05:00:22.548Z,47.72
2022-12-12T05:03:07.935Z,58.65
2022-12-12T05:05:39.755Z,51.42
2022-12-12T05:08:13.347Z,43.17
2022-12-12T05:10:44.306Z,49.95
2022-12-12T05:13:18.925Z,51.35
2022-12-12T05:15:47.418Z,50.25
2022-12-12T05:18:14.588Z,50.65
2022-12-12T05:20:41.837Z,50.20
2022-12-12T05:23:09.297Z,46.63
2022-12-12T05:25:36.377Z,54.42
2022-12-12T05:28:03.486Z,53.47
2022-12-12T05:30:30.694Z,47.70
2022-12-12T05:33:02.138Z,47.38
2022-12-12T05:35:29.225Z,49.85
2022-12-12T05:37:56.557Z,51.55
2022-12-12T05:40:23.879Z,50.72
2022-12-12T05:42:51.554Z,46.70
2022-12-12T05:45:18.852Z,52.45
2022-12-12T05:47:45.980Z,47.75
2022-12-12T05:50:14.227Z,51.30
2022-12-12T05:52:41.397Z,51.88
2022-12-12T05:55:08.820Z,54.40
2022-12-12T05:57:35.938Z,55.03
2022-12-12T06:00:03.546Z,49.22
2022-12-12T06:02:30.691Z,48.78
2022-12-12T06:04:57.847Z,54.30
2022-12-12T06:07:25.118Z,49.65
2022-12-12T06:09:52.340Z,51.38
2022-12-12T06:12:19.722Z,53.72
2022-12-12T06:14:46.789Z,50.72
2022-12-12T06:17:13.973Z,50.85
2022-12-12T06:19:41.187Z,55.53
2022-12-12T06:22:08.350Z,48.03
2022-12-12T06:24:35.545Z,46.78
2022-12-12T06:27:02.646Z,43.83
2022-12-12T06:29:29.730Z,44.53
2022-12-12T06:31:56.926Z,46.72
2022-12-12T06:34:24.004Z,47.58
2022-12-12T06:36:51.104Z,47.45
2022-12-12T06:39:18.515Z,52.42
2022-12-12T06:41:45.642Z,51.47
2022-12-12T06:44:12.761Z,53.35
2022-12-12T06:46:40.064Z,56.85
2022-12-12T06:49:09.832Z,51.97
2022-12-12T06:51:44.143Z,47.70
2022-12-12T06:54:15.066Z,52.53
2022-12-12T06:59:15.479Z,48.22
2022-12-12T07:01:42.788Z,51.35
2022-12-12T07:04:11.034Z,54.55
2022-12-12T07:06:38.117Z,47.65
2022-12-12T07:09:05.566Z,47.28
2022-12-12T07:11:32.658Z,49.75
2022-12-12T07:14:00.052Z,45.40
2022-12-12T07:16:27.584Z,52.08
2022-12-12T07:18:54.718Z,51.33
2022-12-12T07:21:22.327Z,48.83
2022-12-12T07:23:49.531Z,51.85
2022-12-12T07:26:18.217Z,51.13
2022-12-12T07:28:45.534Z,43.67
2022-12-12T07:31:15.153Z,47.38
2022-12-12T07:33:44.485Z,50.72
2022-12-12T07:36:12.850Z,51.03
2022-12-12T07:38:39.958Z,46.05
2022-12-12T07:41:08.251Z,47.97
2022-12-12T07:43:41.392Z,46.50
2022-12-12T07:46:11.566Z,45.97
2022-12-12T07:48:38.932Z,45.35
2022-12-12T07:51:06.186Z,49.75
2022-12-12T07:53:33.297Z,49.10
2022-12-12T07:56:00.422Z,50.50
2022-12-12T07:58:27.503Z,56.05
2022-12-12T08:00:54.613Z,55.47
2022-12-12T08:03:21.769Z,53.83
2022-12-12T08:05:49.210Z,55.00
2022-12-12T08:08:16.539Z,51.63
2022-12-12T08:10:43.677Z,45.03
2022-12-12T08:13:10.784Z,47.25
2022-12-12T08:15:37.975Z,50.80
2022-12-12T08:18:05.061Z,48.08
2022-12-12T08:20:32.150Z,49.53
2022-12-12T08:23:00.101Z,51.88
2022-12-12T08:25:27.320Z,52.30
2022-12-12T08:27:54.438Z,50.70
2022-12-12T08:30:21.926Z,53.15
2022-12-12T08:32:49.057Z,52.28
2022-12-12T08:35:16.567Z,51.38
2022-12-12T08:37:43.767Z,52.75
2022-12-12T08:40:11.121Z,51.47
2022-12-12T08:42:38.274Z,48.00
2022-12-12T08:45:06.103Z,51.60
2022-12-12T08:47:33.253Z,47.15
2022-12-12T08:50:00.357Z,49.15
2022-12-12T08:52:27.437Z,51.55
2022-12-12T08:54:54.551Z,56.05
2022-12-12T08:57:25.937Z,48.95
2022-12-12T08:59:53.277Z,51.05
2022-12-12T09:02:22.541Z,53.05
2022-12-12T09:04:49.706Z,51.25
2022-12-12T09:07:16.902Z,51.85
2022-12-12T09:09:44.238Z,46.72
2022-12-12T09:12:11.470Z,47.83
2022-12-12T09:14:38.668Z,47.67
2022-12-12T09:17:05.875Z,49.53
2022-12-12T09:19:32.976Z,47.17
2022-12-12T09:22:00.062Z,47.63
2022-12-12T09:24:27.226Z,47.80
2022-12-12T09:26:54.799Z,48.67
2022-12-12T09:29:21.878Z,42.92
2022-12-12T09:31:49.041Z,45.85
2022-12-12T09:34:16.427Z,52.97
2022-12-12T09:36:43.553Z,58.58
2022-12-12T09:39:10.713Z,53.60
2022-12-12T09:41:37.807Z,52.25
2022-12-12T09:44:15.894Z,48.42
2022-12-12T09:46:55.612Z,50.95
2022-12-12T09:49:22.689Z,52.75
2022-12-12T09:51:51.264Z,47.88
2022-12-12T09:54:20.545Z,51.17
2022-12-12T09:56:53.438Z,49.28
2022-12-12T09:59:31.641Z,47.47
2022-12-12T10:02:05.934Z,47.03
2022-12-12T10:04:39.803Z,50.75
2022-12-12T10:07:29.543Z,50.55
2022-12-12T10:10:07.432Z,48.28
2022-12-12T10:12:34.940Z,54.25
2022-12-12T10:15:03.878Z,53.08
2022-12-12T10:17:33.775Z,57.60
2022-12-12T10:20:04.221Z,54.30
2022-12-12T10:22:36.826Z,50.55
2022-12-12T10:25:15.337Z,55.25
2022-12-12T10:27:42.418Z,49.13
2022-12-12T10:30:19.103Z,52.70
2022-12-12T10:33:04.891Z,51.85
2022-12-12T10:35:58.460Z,55.42
2022-12-12T10:38:44.158Z,50.20
2022-12-12T10:41:30.406Z,52.63
2022-12-12T10:43:58.309Z,48.90
2022-12-12T10:46:28.939Z,53.20
2022-12-12T10:51:24.826Z,48.35
2022-12-12T10:53:51.994Z,48.50
2022-12-12T10:56:27.209Z,54.38
2022-12-12T10:58:56.155Z,55.30
2022-12-12T11:01:52.142Z,53.08
2022-12-12T11:04:14.834Z,49.38
2022-12-12T11:06:47.657Z,53.10
2022-12-12T11:09:22.764Z,50.38
2022-12-12T11:12:01.094Z,49.63
2022-12-12T11:14:32.147Z,48.05
2022-12-12T11:16:59.492Z,48.47
2022-12-12T11:19:28.023Z,47.95
2022-12-12T11:21:56.224Z,49.30
2022-12-12T11:24:24.649Z,46.53
2022-12-12T11:26:56.921Z,51.50
2022-12-12T11:29:43.278Z,47.97
2022-12-12T11:32:17.099Z,43.60
2022-12-12T11:34:49.900Z,53.92
2022-12-12T11:37:18.367Z,43.60
2022-12-12T11:39:46.819Z,44.65
2022-12-12T11:42:13.890Z,44.60
2022-12-12T11:44:41.713Z,45.50
2022-12-12T11:47:25.793Z,37.55
2022-12-12T11:49:54.621Z,45.40
2022-12-12T11:52:31.923Z,42.63
2022-12-12T11:54:59.820Z,42.03
2022-12-12T11:57:45.455Z,47.65
2022-12-12T12:00:17.748Z,43.50
2022-12-12T12:03:00.189Z,45.03
2022-12-12T12:05:27.514Z,45.22
2022-12-12T12:08:03.525Z,49.60
2022-12-12T12:10:37.821Z,45.13
2022-12-12T12:13:07.709Z,45.42
2022-12-12T12:15:50.121Z,46.25
2022-12-12T12:18:17.249Z,58.03
2022-12-12T12:21:14.372Z,55.15
2022-12-12T12:23:44.148Z,49.72
2022-12-12T12:26:25.305Z,42.58
2022-12-12T12:29:11.268Z,49.22
2022-12-12T12:31:38.333Z,53.42
2022-12-12T12:34:05.484Z,52.65
2022-12-12T12:36:42.804Z,50.08
2022-12-12T12:39:21.971Z,43.88
2022-12-12T12:42:09.282Z,47.63
2022-12-12T12:44:42.737Z,50.08
2022-12-12T12:47:19.023Z,48.10
2022-12-12T12:49:57.389Z,47.47
2022-12-12T12:52:24.447Z,52.33
2022-12-12T12:54:52.830Z,50.22
2022-12-12T12:57:28.357Z,47.55
2022-12-12T13:00:00.669Z,46.42
2022-12-12T13:02:40.076Z,53.67
2022-12-12T13:05:14.241Z,50.53
2022-12-12T13:07:44.385Z,49.15
2022-12-12T13:10:20.557Z,49.08
2022-12-12T13:12:50.703Z,47.20
2022-12-12T13:15:23.710Z,53.33
2022-12-12T13:18:11.396Z,45.13
2022-12-12T13:20:41.339Z,48.92
2022-12-12T13:23:08.447Z,46.80
2022-12-12T13:25:38.616Z,52.70
2022-12-12T13:28:08.594Z,47.60
2022-12-12T13:30:44.410Z,53.67
2022-12-12T13:33:14.351Z,50.55
2022-12-12T13:35:46.052Z,42.22
2022-12-12T13:38:18.047Z,47.08
2022-12-12T13:40:45.294Z,49.63
2022-12-12T13:43:29.736Z,43.03
2022-12-12T13:45:56.999Z,47.10
2022-12-12T13:48:27.185Z,44.53
2022-12-12T13:51:13.046Z,44.65
2022-12-12T13:53:41.418Z,50.63
2022-12-12T13:56:27.235Z,45.10
2022-12-12T13:58:54.397Z,49.00
2022-12-12T14:01:32.262Z,45.80
2022-12-12T14:03:59.599Z,50.53
2022-12-12T14:06:29.594Z,54.88
2022-12-12T14:08:57.298Z,50.45
2022-12-12T14:11:27.478Z,50.97
2022-12-12T14:14:04.456Z,51.78
2022-12-12T14:16:31.695Z,46.92
2022-12-12T14:19:06.754Z,46.85
2022-12-12T14:21:44.630Z,45.30
2022-12-12T14:24:30.670Z,47.40
2022-12-12T14:26:57.778Z,44.63
2022-12-12T14:29:26.402Z,41.53
2022-12-12T14:31:53.565Z,42.17
2022-12-12T14:34:27.309Z,42.40
2022-12-12T14:37:12.734Z,46.30
2022-12-12T14:39:46.999Z,51.97
2022-12-12T14:42:21.745Z,48.00
2022-12-12T14:44:50.930Z,42.58
2022-12-12T14:47:18.738Z,39.10
2022-12-12T14:49:45.892Z,47.03
2022-12-12T14:52:22.340Z,49.08
2022-12-12T14:54:50.442Z,47.85
2022-12-12T14:57:24.889Z,54.83
2022-12-12T14:59:52.102Z,47.05
2022-12-12T15:02:25.793Z,47.00
2022-12-12T15:05:00.849Z,49.03
2022-12-12T15:07:32.779Z,51.75
2022-12-12T15:10:00.174Z,43.90
2022-12-12T15:12:32.672Z,45.40
2022-12-12T15:14:59.977Z,41.65
2022-12-12T15:17:31.594Z,44.45
2022-12-12T15:20:03.729Z,43.72
2022-12-12T15:22:34.862Z,44.58
2022-12-12T15:25:04.317Z,46.88
2022-12-12T15:27:31.834Z,45.17
2022-12-12T15:30:02.808Z,44.35
2022-12-12T15:32:30.523Z,44.50
2022-12-12T15:35:09.836Z,49.95
2022-12-12T15:37:38.174Z,48.20
2022-12-12T15:40:13.668Z,53.78
2022-12-12T15:42:51.675Z,49.63
2022-12-12T15:45:33.360Z,50.72
2022-12-12T15:48:00.689Z,46.97
2022-12-12T15:50:30.392Z,45.97
2022-12-12T15:53:02.910Z,67.72
2022-12-12T15:55:30.424Z,62.55
2022-12-12T15:57:57.606Z,78.43
2022-12-12T16:00:29.281Z,82.82
2022-12-12T16:03:01.088Z,74.03
2022-12-12T16:05:36.499Z,131.40
2022-12-12T16:08:24.909Z,88.15
2022-12-12T16:10:56.938Z,80.30
2022-12-12T16:13:26.215Z,69.95
2022-12-12T16:15:54.095Z,58.35
2022-12-12T16:18:24.462Z,69.82
2022-12-12T16:20:52.842Z,56.90
2022-12-12T16:23:31.652Z,58.45
2022-12-12T16:25:59.526Z,59.75
2022-12-12T16:28:30.460Z,56.05
2022-12-12T16:30:58.889Z,54.72
2022-12-12T16:33:35.240Z,52.53
2022-12-12T16:36:06.339Z,45.38
2022-12-12T16:38:33.558Z,43.45
2022-12-12T16:41:05.689Z,44.53
2022-12-12T16:43:32.842Z,43.45
2022-12-12T16:46:00.583Z,45.85
2022-12-12T16:48:32.261Z,46.97
2022-12-12T16:51:02.050Z,82.07
2022-12-12T16:53:29.188Z,423.48
2022-12-12T16:55:57.028Z,369.67
2022-12-12T16:58:24.475Z,233.52
2022-12-12T17:00:55.610Z,137.18
2022-12-12T17:03:24.195Z,182.52
2022-12-12T17:05:52.431Z,84.28
2022-12-12T17:08:19.763Z,133.52
2022-12-12T17:10:47.853Z,81.93
2022-12-12T17:13:17.001Z,112.35
2022-12-12T17:15:44.268Z,78.40
2022-12-12T17:18:11.775Z,85.20
2022-12-12T17:20:39.015Z,60.72
2022-12-12T17:25:57.253Z,70.40
2022-12-12T17:28:28.147Z,69.28
2022-12-12T17:30:55.344Z,67.78
2022-12-12T17:33:22.728Z,88.63
2022-12-12T17:35:57.738Z,100.20
2022-12-12T17:38:24.931Z,81.82
2022-12-12T17:40:53.991Z,65.57
2022-12-12T17:43:21.296Z,51.45
2022-12-12T17:45:59.758Z,45.42
2022-12-12T17:48:31.327Z,50.20
2022-12-12T17:51:02.787Z,51.17
2022-12-12T17:53:32.472Z,47.92
2022-12-12T17:56:01.618Z,52.27
2022-12-12T17:58:35.675Z,51.78
2022-12-12T18:01:12.067Z,43.63
2022-12-12T18:03:39.383Z,42.97
2022-12-12T18:06:07.141Z,47.22
2022-12-12T18:08:34.729Z,44.22
2022-12-12T18:11:01.998Z,42.58
2022-12-12T18:13:29.184Z,47.97
2022-12-12T18:15:57.257Z,46.85
2022-12-12T18:18:26.119Z,41.67
2022-12-12T18:20:53.919Z,40.25
2022-12-12T18:23:21.126Z,45.90
2022-12-12T18:25:48.305Z,44.42
2022-12-12T18:28:16.720Z,47.47
2022-12-12T18:30:44.061Z,47.97
2022-12-12T18:33:12.183Z,44.05
2022-12-12T18:35:39.249Z,45.97
2022-12-12T18:38:06.726Z,47.75
2022-12-12T18:40:34.439Z,51.15
2022-12-12T18:43:01.668Z,45.72
2022-12-12T18:45:28.880Z,53.20
2022-12-12T18:47:57.800Z,74.53
2022-12-12T18:50:25.012Z,285.08
2022-12-12T18:52:52.162Z,212.38
2022-12-12T18:55:19.387Z,282.17
2022-12-12T18:57:50.152Z,228.52
2022-12-12T19:02:44.890Z,437.10
2022-12-12T19:05:13.571Z,270.42
2022-12-12T19:07:41.650Z,96.75
2022-12-12T19:10:09.129Z,83.65
2022-12-12T19:12:36.708Z,117.50
2022-12-12T19:15:19.704Z,56.90
2022-12-12T19:17:46.959Z,150.05
2022-12-12T19:20:14.527Z,79.05
2022-12-12T19:22:46.406Z,76.88
2022-12-12T19:25:15.016Z,126.95
2022-12-12T19:27:42.507Z,73.10
2022-12-12T19:30:10.309Z,63.95
2022-12-12T19:32:37.556Z,72.35
2022-12-12T19:35:06.977Z,51.95
2022-12-12T19:37:34.410Z,52.47
2022-12-12T19:40:01.624Z,45.40
2022-12-12T19:42:29.178Z,43.63
2022-12-12T19:44:56.256Z,46.10
2022-12-12T19:47:26.067Z,47.08
2022-12-12T19:49:53.247Z,39.30
2022-12-12T19:52:20.456Z,43.03
2022-12-12T19:54:47.706Z,44.05
2022-12-12T19:57:14.997Z,41.83
2022-12-12T19:59:42.086Z,38.28
2022-12-12T20:02:10.842Z,42.13
2022-12-12T20:04:39.649Z,52.95
2022-12-12T20:07:06.826Z,40.40
2022-12-12T20:09:35.623Z,35.70
2022-12-12T20:12:02.941Z,36.25
2022-12-12T20:14:31.685Z,35.38
2022-12-12T20:16:59.545Z,35.60
2022-12-12T20:19:27.373Z,36.17
2022-12-12T20:22:03.371Z,41.47
2022-12-12T20:38:42.583Z,41.20
2022-12-12T20:41:47.633Z,40.47
2022-12-12T20:44:46.202Z,36.58
2022-12-12T20:47:59.785Z,40.90
2022-12-12T20:50:37.066Z,41.30
2022-12-12T20:53:37.534Z,39.17
2022-12-12T20:56:06.469Z,38.63
2022-12-12T20:58:45.409Z,44.42
2022-12-12T21:01:49.655Z,41.45
2022-12-12T21:04:47.411Z,43.35
2022-12-12T21:07:22.492Z,39.03
2022-12-12T21:16:37.678Z,40.70
2022-12-12T21:21:59.722Z,35.67
2022-12-12T21:24:35.563Z,42.67
2022-12-12T21:33:29.044Z,43.85
2022-12-12T21:36:06.662Z,40.63
2022-12-12T21:38:34.166Z,42.17
2022-12-12T21:41:05.637Z,39.67
2022-12-12T21:46:31.244Z,45.50
2022-12-12T21:49:17.936Z,44.75
2022-12-12T21:51:47.984Z,44.00
2022-12-12T21:54:16.247Z,43.10
2022-12-12T21:56:49.701Z,44.80
2022-12-12T21:59:17.348Z,42.60
2022-12-12T22:01:55.165Z,42.17
2022-12-12T22:04:22.656Z,41.30
2022-12-12T22:07:08.222Z,41.42
2022-12-12T22:09:37.254Z,44.17
2022-12-12T22:12:04.813Z,42.70
2022-12-12T22:14:32.751Z,44.00
2022-12-12T22:17:02.877Z,41.20
2022-12-12T22:19:31.754Z,42.08
2022-12-12T22:21:59.135Z,43.70
2022-12-12T22:24:26.486Z,45.67
2022-12-12T22:26:54.143Z,43.92
2022-12-12T22:29:22.126Z,45.70
2022-12-12T22:31:52.843Z,44.08
2022-12-12T22:34:36.985Z,46.75
2022-12-12T22:37:04.642Z,43.00
2022-12-12T22:39:31.875Z,44.33
2022-12-12T22:41:59.074Z,50.35
2022-12-12T22:44:26.821Z,47.10
2022-12-12T22:46:55.036Z,43.25
2022-12-12T22:49:25.738Z,39.88
2022-12-12T22:51:53.158Z,42.35
2022-12-12T22:54:20.415Z,44.72
2022-12-12T22:56:47.753Z,45.70
2022-12-12T22:59:15.513Z,45.13
2022-12-12T23:01:43.297Z,45.30
2022-12-12T23:04:12.949Z,43.38
2022-12-12T23:06:40.134Z,44.87
2022-12-12T23:09:10.029Z,43.08
2022-12-12T23:11:37.653Z,44.58
2022-12-12T23:14:06.708Z,46.80
2022-12-12T23:16:36.968Z,47.15
2022-12-12T23:19:05.209Z,41.88
2022-12-12T23:21:34.644Z,41.10
2022-12-12T23:24:02.376Z,39.08
2022-12-12T23:26:30.509Z,38.58
2022-12-12T23:28:58.720Z,40.60
2022-12-12T23:31:27.588Z,40.80
2022-12-12T23:33:57.686Z,38.17
2022-12-12T23:36:25.374Z,43.72
2022-12-12T23:38:59.971Z,39.83
2022-12-12T23:41:27.581Z,41.60
2022-12-12T23:43:55.127Z,37.95
2022-12-12T23:46:28.948Z,35.88
2022-12-12T23:48:58.045Z,40.00
2022-12-12T23:51:25.916Z,38.38
2022-12-12T23:53:53.078Z,40.30
2022-12-12T23:56:20.363Z,38.10
2022-12-12T23:58:47.541Z,35.17
